Latest Weather Observations for Territory Grape Farm

IDD60801

Issued at 8:35 pm CST Wednesday 26 November 2014 (issued every 30 minutes, with the page automatically refreshed every 10 minutes)

About weather observations | Map of weather stations | Latest weather observations for NT | Other Formats
Station Details ID: 015643 Name: TERRITORY GRAPE FARM Lat: -22.45 Lon: 133.64 Height: 565.6 m
Data from the previous 72 hours. | See also: Recent months at Territory Grape Farm
Date/Time
CST
Temp
°C
App
Temp
°C
Dew
Point
Rel
Hum
%
Delta-T
°C
Wind Press
QNH
hPa
Press
MSL
hPa
Rain
since 9 am
mm
Dir
 
Spd
km/h
Gust
km/h
Spd
kts
Gust
kts
26/08:30pm 31.1 29.3 11.0 29 11.9 ESE 11 15 6 8 1012.8 1008.9 0.0
26/08:00pm 32.0 29.4 10.7 27 12.6 E 15 17 8 9 1012.3 1008.4 0.0
26/07:30pm 32.4 29.3 10.4 26 13.0 E 17 24 9 13 1012.0 1008.1 0.0
26/07:00pm 31.9 29.4 11.1 28 12.4 SE 15 20 8 11 1011.7 1007.8 0.0
26/06:30pm 32.4 27.0 11.0 27 12.7 ESE 30 44 16 24 1011.6 1007.7 0.0
26/06:00pm 33.6 28.6 10.9 25 13.6 E 28 41 15 22 1011.3 1007.4 0.0
26/05:30pm 34.0 28.7 9.9 23 14.2 E 28 39 15 21 1011.2 1007.3 0.0
26/05:00pm 34.3 30.8 10.8 24 14.0 E 20 30 11 16 1011.2 1007.3 0.0
26/04:30pm 34.0 31.2 11.2 25 13.7 ESE 17 22 9 12 1011.2 1007.3 0.0
26/04:00pm 34.6 30.4 11.1 24 14.1 E 24 39 13 21 1011.5 1007.6 0.0
26/03:30pm 35.4 32.0 11.1 23 14.7 SE 20 35 11 19 1011.7 1007.8 0.0
26/03:00pm 34.1 30.5 11.9 26 13.5 E 22 30 12 16 1012.0 1008.1 0.0
26/02:30pm 34.2 31.8 12.5 27 13.3 ESE 17 26 9 14 1012.2 1008.3 0.0
26/02:00pm 35.3 33.4 12.9 26 13.8 SE 15 24 8 13 1012.7 1008.8 0.0
26/01:30pm 34.9 31.9 12.5 25 13.8 E 20 33 11 18 1013.3 1009.4 0.0
26/01:00pm 33.2 30.0 11.1 26 13.2 ESE 19 28 10 15 1013.8 1009.9 0.0
26/12:30pm 33.7 30.7 12.1 27 13.1 ENE 19 30 10 16 1014.4 1010.5 0.0
26/12:00pm 33.0 29.9 12.1 28 12.7 SE 20 32 11 17 1014.8 1010.9 0.0
26/11:30am 32.5 29.4 12.2 29 12.3 SE 20 24 11 13 1015.3 1011.4 0.0
26/11:00am 31.7 28.3 12.5 31 11.6 ESE 22 32 12 17 1015.8 1012.0 0.0
26/10:30am 31.0 27.4 11.9 31 11.4 E 22 32 12 17 1016.3 1012.4 0.0
26/10:00am 30.0 27.0 12.4 34 10.6 ESE 20 30 11 16 1016.5 1012.6 0.0
26/09:30am 28.6 24.7 12.1 36 9.8 ESE 24 32 13 17 1016.8 1012.9 0.0
26/09:00am 27.0 23.4 11.9 39 8.9 ESE 22 30 12 16 1016.8 1012.9 0.0
26/08:30am 26.1 22.5 11.8 41 8.4 ESE 22 32 12 17 1016.5 1012.6 0.0
26/08:00am 26.3 22.6 11.6 40 8.6 SE 22 35 12 19 1016.3 1012.4 0.0
26/07:30am 24.7 22.1 12.0 45 7.4 SE 17 24 9 13 1016.0 1012.2 0.0
26/07:00am 23.4 21.4 11.5 47 6.9 SE 13 17 7 9 1016.1 1012.3 0.0
26/06:30am 22.7 20.9 10.8 47 6.7 SE 11 15 6 8 1015.8 1012.0 0.0
26/06:00am 22.6 20.2 10.1 45 7.0 SSE 13 17 7 9 1015.3 1011.4 0.0
26/05:30am 22.4 20.3 9.6 44 7.1 SE 11 15 6 8 1015.0 1011.1 0.0
26/05:00am 22.7 20.0 9.1 42 7.5 SE 13 17 7 9 1014.8 1010.9 0.0
26/04:30am 22.9 21.0 9.0 41 7.6 SSE 9 13 5 7 1014.6 1010.7 0.0
26/04:00am 23.4 20.9 8.3 38 8.2 SSE 11 17 6 9 1014.4 1010.5 0.0
26/03:30am 23.8 20.5 8.2 37 8.5 SSE 15 20 8 11 1014.5 1010.6 0.0
26/03:00am 23.8 20.1 7.8 36 8.7 SE 17 20 9 11 1014.4 1010.5 0.0
26/02:30am 24.5 20.8 8.0 35 9.0 SSE 17 22 9 12 1014.8 1010.9 0.0
26/02:00am 24.8 20.7 7.9 34 9.2 SE 19 28 10 15 1014.9 1011.0 0.0
26/01:30am 25.0 21.3 8.1 34 9.3 SE 17 24 9 13 1014.8 1010.9 0.0
26/01:00am 25.3 21.3 8.3 34 9.4 SE 19 30 10 16 1015.0 1011.1 0.0
26/12:30am 25.6 22.1 8.6 34 9.4 SSE 17 24 9 13 1015.3 1011.4 0.0
26/12:00am 25.9 22.3 8.4 33 9.7 SSE 17 22 9 12 1015.5 1011.6 0.0
 
Date/Time
CST
Temp
°C
App
Temp
°C
Dew
Point
Rel
Hum
%
Delta-T
°C
Wind Press
QNH
hPa
Press
MSL
hPa
Rain
since 9 am
mm
Dir
 
Spd
km/h
Gust
km/h
Spd
kts
Gust
kts
25/11:30pm 26.0 22.5 8.9 34 9.5 SE 17 26 9 14 1015.8 1012.0 0.0
25/11:00pm 26.2 22.4 9.1 34 9.6 SE 19 26 10 14 1015.9 1012.1 0.0
25/10:30pm 26.5 22.5 8.9 33 9.8 SE 20 30 11 16 1016.0 1012.2 0.0
25/10:00pm 26.8 22.0 8.7 32 10.1 SE 24 33 13 18 1015.8 1012.0 0.0
25/09:30pm 27.4 22.7 9.3 32 10.2 SE 24 33 13 18 1015.3 1011.4 0.0
25/09:00pm 28.0 24.1 9.3 31 10.6 SSE 20 32 11 17 1015.0 1011.1 0.0
25/08:30pm 28.6 23.9 9.3 30 11.0 SE 24 37 13 20 1014.5 1010.6 0.0
25/08:00pm 28.9 24.8 10.1 31 10.9 SE 22 33 12 18 1014.1 1010.3 0.0
25/07:30pm 29.7 25.7 10.3 30 11.3 SE 22 35 12 19 1014.0 1010.2 0.0
25/07:00pm 30.2 25.1 10.7 30 11.4 SE 28 35 15 19 1013.6 1009.7 0.0
25/06:30pm 30.8 26.5 10.7 29 11.8 SE 24 33 13 18 1013.1 1009.2 0.0
25/06:00pm 31.4 28.1 11.7 29 11.8 SSE 20 32 11 17 1012.9 1009.0 0.0
25/05:30pm 32.0 28.1 10.7 27 12.6 SSE 22 35 12 19 1012.8 1008.9 0.0
25/05:00pm 32.6 28.0 11.2 27 12.8 SSE 26 37 14 20 1012.7 1008.8 0.0
25/04:30pm 32.7 27.2 10.7 26 13.0 SSE 30 44 16 24 1012.4 1008.6 0.0
25/04:00pm 32.8 28.3 10.2 25 13.3 SSE 24 41 13 22 1012.4 1008.6 0.0
25/03:30pm 33.4 28.7 10.7 25 13.5 SE 26 43 14 23 1012.7 1008.8 0.0
25/03:00pm 33.5 29.9 11.9 27 13.1 SE 22 39 12 21 1013.1 1009.2 0.0
25/02:30pm 33.3 29.5 12.3 28 12.8 E 24 30 13 16 1013.7 1009.8 0.0
25/02:00pm 33.2 29.9 12.8 29 12.5 ESE 22 33 12 18 1014.2 1010.4 0.0
25/01:30pm 32.4 29.6 13.1 31 11.8 SE 20 35 11 19 1014.8 1010.9 0.0
25/01:00pm 31.8 27.7 12.6 31 11.7 ESE 26 39 14 21 1015.3 1011.4 0.0
25/12:30pm 30.6 26.8 12.5 33 10.9 SE 24 37 13 20 1015.6 1011.8 0.0
25/12:00pm 28.8 24.4 10.5 32 10.6 SE 24 33 13 18 1016.0 1012.2 0.0
25/11:30am 29.4 25.2 11.0 32 10.8 SE 24 33 13 18 1016.3 1012.4 0.0
25/11:00am 29.3 24.7 12.3 35 10.2 ESE 28 37 15 20 1016.3 1012.4 0.0
25/10:30am 28.8 23.7 11.8 35 10.1 SE 30 41 16 22 1016.3 1012.4 0.0
25/10:00am 28.0 23.0 11.1 35 9.9 SE 28 39 15 21 1016.5 1012.6 0.0
25/09:30am 28.1 23.3 11.6 36 9.7 SE 28 39 15 21 1016.3 1012.4 0.0
25/09:00am 27.6 22.7 11.2 36 9.6 SE 28 39 15 21 1016.0 1012.2 0.2
25/08:30am 27.6 23.7 12.0 38 9.2 SE 24 37 13 20 1015.8 1012.0 0.2
25/08:00am 27.0 23.6 12.6 41 8.6 SE 22 32 12 17 1015.7 1011.9 0.2
25/07:30am 26.9 23.9 12.5 40 8.6 SSE 20 26 11 14 1015.5 1011.6 0.2
25/07:00am 26.3 24.1 13.4 45 7.8 SSE 17 22 9 12 1015.2 1011.3 0.2
25/06:30am 25.6 24.8 15.0 52 6.5 SSE 13 20 7 11 1014.9 1011.0 0.2
25/06:00am 24.9 25.2 16.1 58 5.5 SSE 9 13 5 7 1014.4 1010.5 0.2
25/05:30am 25.3 25.4 16.4 57 5.6 SSE 11 15 6 8 1014.1 1010.3 0.2
25/05:00am 24.7 25.3 16.9 62 4.9 SSE 9 13 5 7 1013.8 1009.9 0.2
25/04:30am 24.7 25.3 16.9 62 4.9 SSE 9 11 5 6 1013.6 1009.7 0.2
25/04:00am 24.9 25.6 17.1 62 4.9 S 9 11 5 6 1013.5 1009.6 0.2
25/03:30am 24.0 25.2 17.3 66 4.3 SE 7 9 4 5 1013.3 1009.4 0.2
25/03:00am 24.4 25.0 16.9 63 4.7 SSE 9 11 5 6 1013.5 1009.6 0.2
25/02:30am 24.3 25.2 16.6 62 4.8 S 7 11 4 6 1013.5 1009.6 0.2
25/02:00am 23.9 24.3 16.4 63 4.7 SSE 9 13 5 7 1013.3 1009.4 0.2
25/01:30am 23.6 23.7 16.4 64 4.5 SSE 11 15 6 8 1013.4 1009.5 0.2
25/01:00am 23.5 23.5 16.3 64 4.5 SE 11 13 6 7 1013.5 1009.6 0.2
25/12:30am 24.5 25.2 16.2 60 5.2 ESE 7 7 4 4 1013.6 1009.7 0.2
25/12:00am 25.0 25.7 16.2 58 5.5 E 7 9 4 5 1013.9 1010.0 0.2
 
Date/Time
CST
Temp
°C
App
Temp
°C
Dew
Point
Rel
Hum
%
Delta-T
°C
Wind Press
QNH
hPa
Press
MSL
hPa
Rain
since 9 am
mm
Dir
 
Spd
km/h
Gust
km/h
Spd
kts
Gust
kts
24/11:30pm 25.8 25.5 15.5 53 6.4 E 11 13 6 7 1013.9 1010.0 0.2
24/11:00pm 26.0 26.4 16.3 55 6.1 E 9 11 5 6 1014.1 1010.3 0.2
24/10:30pm 25.5 25.9 17.2 60 5.3 E 11 13 6 7 1013.8 1009.9 0.2
24/10:00pm 25.4 26.8 17.8 62 4.9 E 7 9 4 5 1013.8 1009.9 0.2
24/09:30pm 26.1 27.2 18.0 61 5.2 ESE 9 11 5 6 1013.4 1009.5 0.2
24/09:00pm 26.9 28.5 18.2 59 5.7 ESE 7 7 4 4 1013.0 1009.1 0.2
24/08:30pm 29.0 29.6 15.9 45 8.3 SSE 7 7 4 4 1012.6 1008.7 0.2
24/08:00pm 28.3 29.2 17.5 52 7.0 ESE 9 9 5 5 1012.2 1008.3 0.2
24/07:30pm 29.6 31.2 16.8 46 8.2 SSE 4 7 2 4 1011.9 1008.0 0.2
24/07:00pm 31.2 31.6 14.8 37 10.3 SSW 6 9 3 5 1011.5 1007.6 0.2
24/06:30pm 32.5 31.2 13.7 32 11.7 SSW 13 20 7 11 1011.0 1007.1 0.2
24/06:00pm 33.4 31.3 13.5 30 12.3 SSW 17 22 9 12 1010.5 1006.6 0.2
24/05:30pm 34.2 33.1 13.1 28 13.0 S 11 19 6 10 1010.5 1006.6 0.2
24/05:00pm 34.0 32.5 11.8 26 13.4 SSE 11 19 6 10 1010.4 1006.5 0.2
24/04:30pm 33.9 32.3 12.8 28 13.0 S 13 22 7 12 1010.4 1006.5 0.2
24/04:00pm 33.2 31.8 13.3 30 12.3 SSE 13 19 7 10 1010.9 1007.0 0.2
24/03:30pm 32.7 31.4 13.8 31 11.7 S 13 20 7 11 1011.4 1007.5 0.2
24/03:00pm 31.3 30.4 14.9 37 10.3 S 13 22 7 12 1011.8 1007.9 0.2
24/02:30pm 31.4 30.7 15.4 38 10.1 S 13 24 7 13 1012.1 1008.2 0.2
24/02:00pm 29.5 29.5 16.3 45 8.4 S 11 19 6 10 1012.7 1008.8 0.2
24/01:30pm 28.5 28.5 18.0 53 6.8 S 15 20 8 11 1013.0 1009.1 0.2
24/01:00pm 27.3 26.6 18.3 58 5.9 S 19 32 10 17 1013.4 1009.5 0.2
24/12:30pm 26.1 23.5 20.0 69 4.1 ENE 33 43 18 23 1012.8 1008.9 0.0
24/12:00pm 25.9 26.1 19.3 67 4.3 ENE 17 26 9 14 1013.9 1010.0 0.0
24/11:30am 26.0 28.2 20.3 71 3.8 E 9 15 5 8 1015.3 1011.4 0.0
24/11:00am 25.4 26.2 19.8 71 3.7 NE 15 20 8 11 1015.0 1011.1 0.0
24/10:30am 25.2 28.1 19.8 72 3.6 WNW 4 6 2 3 1015.9 1012.1 0.0
24/10:00am 24.6 27.8 19.7 74 3.2 NW 2 4 1 2 1016.4 1012.5 0.0
24/09:30am 24.1 26.3 20.4 80 2.5 N 9 13 5 7 1016.3 1012.4 0.0
24/09:00am 22.8 23.1 20.5 87 1.5 N 19 24 10 13 1016.4 1012.5 3.8
24/08:30am 22.6 24.4 20.3 87 1.5 NNW 11 19 6 10 1017.2 1013.4 3.8
24/08:00am 22.6 24.6 20.7 89 1.3 N 11 15 6 8 1016.9 1013.0 3.8
24/07:30am 22.3 22.7 19.8 86 1.6 E 17 20 9 11 1016.6 1012.7 3.8
24/07:00am 22.3 24.5 19.7 85 1.7 ENE 7 11 4 6 1016.5 1012.6 3.0
24/06:30am 22.2 24.6 19.6 85 1.7 SE 6 13 3 7 1015.8 1012.0 2.4
24/06:00am 22.3 22.8 19.3 83 2.0 S 15 24 8 13 1014.8 1010.9 2.4
24/05:30am 21.7 22.0 19.6 88 1.4 SSW 17 26 9 14 1014.5 1010.6 2.2
24/05:00am 22.0 20.9 19.4 85 1.7 S 24 33 13 18 1013.8 1009.9 2.0
24/04:30am 22.1 20.7 19.6 86 1.6 SSW 26 37 14 20 1013.8 1009.9 2.0
24/04:00am 23.7 20.9 19.0 75 3.1 WSW 32 52 17 28 1013.4 1009.5 1.2
24/03:59am 24.4 22.0 19.0 72 3.5 WSW 30 52 16 28 1013.6 1009.7 1.2
24/03:57am 24.7 22.8 19.3 72 3.5 WSW 28 43 15 23 1013.4 1009.5 1.2
24/03:30am 25.6 26.1 19.3 68 4.1 N 15 19 8 10 1011.8 1007.9 1.0
24/03:00am 27.3 29.3 17.8 56 6.1 S 4 9 2 5 1011.9 1008.0 1.0
24/02:30am 27.4 26.2 17.6 55 6.3 N 20 26 11 14 1011.3 1007.4 1.0
24/02:00am 25.7 27.7 19.1 67 4.3 W 7 13 4 7 1011.2 1007.3 1.0
24/01:51am 24.6 25.4 19.0 71 3.7 WSW 13 24 7 13 1011.2 1007.3 1.0
24/01:30am 29.6 27.2 16.4 45 8.4 WNW 24 32 13 17 1011.3 1007.4 0.4
24/01:00am 28.9 29.5 16.8 48 7.7 SSW 9 13 5 7 1010.9 1007.0 0.4
24/12:30am 30.1 30.4 15.0 40 9.5 SE 7 13 4 7 1011.1 1007.2 0.0
24/12:00am 29.3 29.7 15.4 42 8.7 ESE 7 11 4 6 1011.1 1007.2 0.0
 
Date/Time
CST
Temp
°C
App
Temp
°C
Dew
Point
Rel
Hum
%
Delta-T
°C
Wind Press
QNH
hPa
Press
MSL
hPa
Rain
since 9 am
mm
Dir
 
Spd
km/h
Gust
km/h
Spd
kts
Gust
kts
23/11:30pm 29.8 30.7 16.6 45 8.5 NNW 7 13 4 7 1011.2 1007.3 0.0
23/11:00pm 30.2 31.0 14.7 39 9.7 WSW 4 4 2 2 1011.5 1007.6 0.0
23/10:30pm 30.3 30.9 15.2 40 9.5 SW 6 9 3 5 1011.7 1007.8 0.0
23/10:00pm 30.7 31.3 15.2 39 9.7 S 6 7 3 4 1011.7 1007.8 0.0
23/09:30pm 30.5 32.2 16.1 41 9.2 E 2 4 1 2 1011.4 1007.5 0.0
23/09:00pm 31.0 32.3 17.0 43 9.1 NNW 6 7 3 4 1011.1 1007.2 0.0

Other Formats:

Comma delimited format used in spreadsheet applications
http://www.bom.gov.au/fwo/IDD60801/IDD60801.94328.axf

JavaScript Object Notation format (JSON) in row-major order
http://www.bom.gov.au/fwo/IDD60801/IDD60801.94328.json